sensor_id;sensor_type;location;lat;lon;timestamp;pressure;altitude;pressure_sealevel;temperature;humidity
43824;BME280;29470;53.550;9.926;2023-04-27T00:00:20;101497.31;;;7.87;68.34
43824;BME280;29470;53.550;9.926;2023-04-27T00:05:25;101490.16;;;7.93;67.72
43824;BME280;29470;53.550;9.926;2023-04-27T00:10:29;101494.63;;;7.85;68.56
43824;BME280;29470;53.550;9.926;2023-04-27T00:15:32;101491.03;;;7.74;69.15
43824;BME280;29470;53.550;9.926;2023-04-27T00:20:35;101487.72;;;7.94;68.31
43824;BME280;29470;53.550;9.926;2023-04-27T00:25:39;101489.09;;;7.91;68.46
43824;BME280;29470;53.550;9.926;2023-04-27T00:30:42;101482.69;;;7.96;68.02
43824;BME280;29470;53.550;9.926;2023-04-27T00:35:45;101481.38;;;7.91;68.22
43824;BME280;29470;53.550;9.926;2023-04-27T00:40:49;101480.22;;;7.87;68.76
43824;BME280;29470;53.550;9.926;2023-04-27T00:45:53;101486.59;;;7.82;68.33
43824;BME280;29470;53.550;9.926;2023-04-27T00:50:56;101490.53;;;7.78;69.13
43824;BME280;29470;53.550;9.926;2023-04-27T00:56:00;101498.53;;;7.62;70.07
43824;BME280;29470;53.550;9.926;2023-04-27T01:01:04;101489.84;;;7.71;69.63
43824;BME280;29470;53.550;9.926;2023-04-27T01:06:06;101498.56;;;7.54;70.15
43824;BME280;29470;53.550;9.926;2023-04-27T01:11:11;101498.56;;;7.54;69.88
43824;BME280;29470;53.550;9.926;2023-04-27T01:16:16;101498.63;;;7.45;71.12
43824;BME280;29470;53.550;9.926;2023-04-27T01:21:19;101503.13;;;7.11;71.60
43824;BME280;29470;53.550;9.926;2023-04-27T01:26:23;101504.44;;;7.61;70.05
43824;BME280;29470;53.550;9.926;2023-04-27T01:31:26;101511.69;;;7.29;71.68
43824;BME280;29470;53.550;9.926;2023-04-27T01:36:29;101524.06;;;6.96;72.48
43824;BME280;29470;53.550;9.926;2023-04-27T01:41:33;101526.19;;;6.83;73.19
43824;BME280;29470;53.550;9.926;2023-04-27T01:46:37;101519.28;;;7.27;72.14
43824;BME280;29470;53.550;9.926;2023-04-27T01:51:40;101533.09;;;7.19;72.09
43824;BME280;29470;53.550;9.926;2023-04-27T01:56:45;101532.28;;;6.83;73.39
43824;BME280;29470;53.550;9.926;2023-04-27T02:01:47;101542.94;;;7.05;72.80
43824;BME280;29470;53.550;9.926;2023-04-27T02:06:50;101560.56;;;6.83;73.84
43824;BME280;29470;53.550;9.926;2023-04-27T02:11:54;101556.75;;;7.06;73.51
43824;BME280;29470;53.550;9.926;2023-04-27T02:16:59;101563.09;;;7.01;73.28
43824;BME280;29470;53.550;9.926;2023-04-27T02:22:02;101565.31;;;7.24;71.98
43824;BME280;29470;53.550;9.926;2023-04-27T02:27:07;101554.59;;;7.56;70.64
43824;BME280;29470;53.550;9.926;2023-04-27T02:32:10;101553.44;;;7.35;70.27
43824;BME280;29470;53.550;9.926;2023-04-27T02:37:13;101551.78;;;7.72;68.32
43824;BME280;29470;53.550;9.926;2023-04-27T02:42:17;101549.81;;;7.42;69.26
43824;BME280;29470;53.550;9.926;2023-04-27T02:47:20;101548.81;;;7.87;66.81
43824;BME280;29470;53.550;9.926;2023-04-27T02:52:23;101544.25;;;7.65;67.15
43824;BME280;29470;53.550;9.926;2023-04-27T02:57:27;101556.16;;;7.73;66.73
43824;BME280;29470;53.550;9.926;2023-04-27T03:02:30;101559.06;;;7.31;68.33
43824;BME280;29470;53.550;9.926;2023-04-27T03:07:33;101554.31;;;7.44;67.95
43824;BME280;29470;53.550;9.926;2023-04-27T03:12:38;101548.34;;;7.63;67.47
43824;BME280;29470;53.550;9.926;2023-04-27T03:17:41;101549.47;;;7.47;69.48
43824;BME280;29470;53.550;9.926;2023-04-27T03:22:44;101559.94;;;7.40;69.84
43824;BME280;29470;53.550;9.926;2023-04-27T03:27:48;101558.41;;;6.88;73.12
43824;BME280;29470;53.550;9.926;2023-04-27T03:32:51;101559.34;;;6.88;73.49
43824;BME280;29470;53.550;9.926;2023-04-27T03:37:54;101558.41;;;6.97;73.47
43824;BME280;29470;53.550;9.926;2023-04-27T03:42:58;101557.97;;;6.83;75.05
43824;BME280;29470;53.550;9.926;2023-04-27T03:48:01;101572.94;;;6.78;75.40
43824;BME280;29470;53.550;9.926;2023-04-27T03:53:04;101573.09;;;6.98;73.56
43824;BME280;29470;53.550;9.926;2023-04-27T03:58:09;101577.19;;;6.52;75.15
43824;BME280;29470;53.550;9.926;2023-04-27T04:03:23;101566.44;;;6.73;74.96
43824;BME280;29470;53.550;9.926;2023-04-27T04:08:26;101570.22;;;6.68;74.42
43824;BME280;29470;53.550;9.926;2023-04-27T04:13:30;101578.56;;;6.66;74.25
43824;BME280;29470;53.550;9.926;2023-04-27T04:18:33;101569.31;;;7.03;73.88
43824;BME280;29470;53.550;9.926;2023-04-27T04:23:37;101571.56;;;6.91;74.15
43824;BME280;29470;53.550;9.926;2023-04-27T04:28:43;101581.28;;;6.93;74.34
43824;BME280;29470;53.550;9.926;2023-04-27T04:33:46;101588.69;;;6.90;74.93
43824;BME280;29470;53.550;9.926;2023-04-27T04:38:49;101600.78;;;6.74;74.89
43824;BME280;29470;53.550;9.926;2023-04-27T04:43:55;101600.44;;;7.15;73.08
43824;BME280;29470;53.550;9.926;2023-04-27T04:48:59;101603.41;;;7.37;72.81
43824;BME280;29470;53.550;9.926;2023-04-27T04:54:06;101600.09;;;7.75;71.77
43824;BME280;29470;53.550;9.926;2023-04-27T04:59:15;101601.63;;;8.01;70.35
43824;BME280;29470;53.550;9.926;2023-04-27T05:04:18;101616.31;;;8.30;68.30
43824;BME280;29470;53.550;9.926;2023-04-27T05:09:22;101617.56;;;7.69;69.47
43824;BME280;29470;53.550;9.926;2023-04-27T05:14:27;101623.94;;;7.55;69.60
43824;BME280;29470;53.550;9.926;2023-04-27T05:19:30;101620.88;;;8.23;68.42
43824;BME280;29470;53.550;9.926;2023-04-27T05:24:33;101615.88;;;7.69;68.72
43824;BME280;29470;53.550;9.926;2023-04-27T05:29:39;101618.78;;;8.19;68.52
43824;BME280;29470;53.550;9.926;2023-04-27T05:34:42;101617.75;;;7.89;69.43
43824;BME280;29470;53.550;9.926;2023-04-27T05:39:47;101620.59;;;7.56;70.45
43824;BME280;29470;53.550;9.926;2023-04-27T05:44:52;101617.44;;;7.58;68.44
43824;BME280;29470;53.550;9.926;2023-04-27T05:49:56;101613.97;;;7.86;68.51
43824;BME280;29470;53.550;9.926;2023-04-27T05:54:59;101609.38;;;8.86;66.85
43824;BME280;29470;53.550;9.926;2023-04-27T06:00:07;101619.84;;;9.76;62.20
43824;BME280;29470;53.550;9.926;2023-04-27T06:05:14;101623.13;;;11.20;54.95
43824;BME280;29470;53.550;9.926;2023-04-27T06:10:17;101629.50;;;11.68;53.14
43824;BME280;29470;53.550;9.926;2023-04-27T06:15:21;101624.53;;;12.04;51.07
43824;BME280;29470;53.550;9.926;2023-04-27T06:20:24;101626.50;;;13.24;48.51
43824;BME280;29470;53.550;9.926;2023-04-27T06:25:27;101630.84;;;11.85;52.20
43824;BME280;29470;53.550;9.926;2023-04-27T06:30:31;101625.81;;;14.38;46.52
43824;BME280;29470;53.550;9.926;2023-04-27T06:35:35;101623.66;;;15.39;42.77
43824;BME280;29470;53.550;9.926;2023-04-27T06:40:38;101621.91;;;17.45;40.64
43824;BME280;29470;53.550;9.926;2023-04-27T06:45:42;101620.31;;;17.00;40.34
43824;BME280;29470;53.550;9.926;2023-04-27T06:50:45;101608.94;;;18.29;37.36
43824;BME280;29470;53.550;9.926;2023-04-27T06:55:49;101603.94;;;18.68;37.58
43824;BME280;29470;53.550;9.926;2023-04-27T07:01:07;101596.78;;;21.22;32.55
43824;BME280;29470;53.550;9.926;2023-04-27T07:06:46;101602.16;;;21.95;32.89
43824;BME280;29470;53.550;9.926;2023-04-27T07:11:50;101627.28;;;18.13;36.80
43824;BME280;29470;53.550;9.926;2023-04-27T07:16:56;101635.84;;;18.96;35.45
43824;BME280;29470;53.550;9.926;2023-04-27T07:22:05;101640.38;;;18.64;34.75
43824;BME280;29470;53.550;9.926;2023-04-27T07:27:22;101638.56;;;21.37;32.62
43824;BME280;29470;53.550;9.926;2023-04-27T07:32:29;101635.34;;;22.64;31.59
43824;BME280;29470;53.550;9.926;2023-04-27T07:37:33;101634.84;;;22.50;29.87
43824;BME280;29470;53.550;9.926;2023-04-27T07:42:36;101649.66;;;19.66;33.56
43824;BME280;29470;53.550;9.926;2023-04-27T07:47:41;101662.41;;;14.67;41.59
43824;BME280;29470;53.550;9.926;2023-04-27T07:52:44;101666.84;;;13.43;45.24
43824;BME280;29470;53.550;9.926;2023-04-27T08:09:27;101657.69;;;16.54;38.12
43824;BME280;29470;53.550;9.926;2023-04-27T08:14:33;101649.31;;;17.51;38.06
43824;BME280;29470;53.550;9.926;2023-04-27T08:19:35;101637.72;;;14.73;40.64
43824;BME280;29470;53.550;9.926;2023-04-27T08:24:40;101637.69;;;15.54;39.47
43824;BME280;29470;53.550;9.926;2023-04-27T08:29:45;101639.56;;;14.63;41.72
43824;BME280;29470;53.550;9.926;2023-04-27T08:34:48;101649.78;;;14.21;42.66
43824;BME280;29470;53.550;9.926;2023-04-27T08:39:55;101633.03;;;15.08;42.27
43824;BME280;29470;53.550;9.926;2023-04-27T08:45:02;101626.44;;;16.26;38.41
43824;BME280;29470;53.550;9.926;2023-04-27T08:50:12;101619.16;;;14.69;38.90
43824;BME280;29470;53.550;9.926;2023-04-27T08:55:16;101617.38;;;15.22;38.64
43824;BME280;29470;53.550;9.926;2023-04-27T09:00:20;101626.59;;;14.76;39.73
43824;BME280;29470;53.550;9.926;2023-04-27T09:05:23;101619.22;;;14.43;39.83
43824;BME280;29470;53.550;9.926;2023-04-27T09:10:27;101624.22;;;15.06;38.65
43824;BME280;29470;53.550;9.926;2023-04-27T09:15:41;101640.69;;;13.65;40.99
43824;BME280;29470;53.550;9.926;2023-04-27T09:20:50;101636.84;;;13.60;41.41
43824;BME280;29470;53.550;9.926;2023-04-27T09:26:18;101638.13;;;13.53;41.46
43824;BME280;29470;53.550;9.926;2023-04-27T09:37:35;101634.13;;;13.70;41.59
43824;BME280;29470;53.550;9.926;2023-04-27T09:42:47;101619.00;;;14.79;38.28
43824;BME280;29470;53.550;9.926;2023-04-27T09:47:52;101613.19;;;14.31;37.65
43824;BME280;29470;53.550;9.926;2023-04-27T09:52:57;101614.88;;;13.80;38.92
43824;BME280;29470;53.550;9.926;2023-04-27T09:58:12;101620.56;;;14.25;39.49
43824;BME280;29470;53.550;9.926;2023-04-27T10:03:22;101609.38;;;15.05;38.12
43824;BME280;29470;53.550;9.926;2023-04-27T10:08:28;101623.75;;;14.59;38.78
43824;BME280;29470;53.550;9.926;2023-04-27T10:13:32;101616.38;;;15.33;37.39
43824;BME280;29470;53.550;9.926;2023-04-27T10:18:35;101616.66;;;15.24;36.66
43824;BME280;29470;53.550;9.926;2023-04-27T10:23:45;101624.59;;;15.39;37.00
43824;BME280;29470;53.550;9.926;2023-04-27T10:28:57;101617.25;;;14.27;38.75
43824;BME280;29470;53.550;9.926;2023-04-27T10:34:07;101620.09;;;14.69;37.69
43824;BME280;29470;53.550;9.926;2023-04-27T10:39:15;101634.31;;;14.49;37.87
43824;BME280;29470;53.550;9.926;2023-04-27T10:50:13;101626.41;;;15.69;36.33
43824;BME280;29470;53.550;9.926;2023-04-27T11:08:43;101635.63;;;14.81;39.88
43824;BME280;29470;53.550;9.926;2023-04-27T11:20:08;101631.00;;;15.44;40.06
43824;BME280;29470;53.550;9.926;2023-04-27T11:25:50;101635.06;;;14.60;41.07
43824;BME280;29470;53.550;9.926;2023-04-27T11:30:56;101629.84;;;14.60;40.25
43824;BME280;29470;53.550;9.926;2023-04-27T11:36:03;101627.22;;;15.26;39.43
43824;BME280;29470;53.550;9.926;2023-04-27T11:41:10;101628.16;;;16.55;37.58
43824;BME280;29470;53.550;9.926;2023-04-27T11:46:13;101639.41;;;15.82;38.88
43824;BME280;29470;53.550;9.926;2023-04-27T11:51:23;101625.91;;;15.88;38.45
43824;BME280;29470;53.550;9.926;2023-04-27T11:56:33;101625.84;;;16.60;37.10
43824;BME280;29470;53.550;9.926;2023-04-27T12:15:31;101627.72;;;15.75;36.73
43824;BME280;29470;53.550;9.926;2023-04-27T12:20:51;101627.56;;;15.59;37.61
43824;BME280;29470;53.550;9.926;2023-04-27T12:25:54;101639.97;;;15.63;37.89
43824;BME280;29470;53.550;9.926;2023-04-27T12:31:00;101638.81;;;14.77;38.93
43824;BME280;29470;53.550;9.926;2023-04-27T12:36:07;101641.84;;;15.24;38.59
43824;BME280;29470;53.550;9.926;2023-04-27T12:41:10;101644.94;;;15.18;38.60
43824;BME280;29470;53.550;9.926;2023-04-27T12:46:14;101642.63;;;15.92;37.56
43824;BME280;29470;53.550;9.926;2023-04-27T12:51:30;101641.03;;;15.80;36.83
43824;BME280;29470;53.550;9.926;2023-04-27T13:03:28;101650.56;;;14.84;39.81
43824;BME280;29470;53.550;9.926;2023-04-27T13:08:38;101650.34;;;14.17;41.79
43824;BME280;29470;53.550;9.926;2023-04-27T13:19:50;101673.13;;;12.87;47.56
43824;BME280;29470;53.550;9.926;2023-04-27T13:25:11;101663.63;;;13.35;45.15
43824;BME280;29470;53.550;9.926;2023-04-27T13:31:03;101671.81;;;13.89;45.13
43824;BME280;29470;53.550;9.926;2023-04-27T13:36:43;101654.19;;;14.61;42.19
43824;BME280;29470;53.550;9.926;2023-04-27T13:41:52;101654.06;;;15.38;41.48
43824;BME280;29470;53.550;9.926;2023-04-27T13:47:03;101654.66;;;15.34;40.52
43824;BME280;29470;53.550;9.926;2023-04-27T13:52:08;101644.25;;;16.33;38.43
43824;BME280;29470;53.550;9.926;2023-04-27T13:57:12;101640.66;;;15.19;40.19
43824;BME280;29470;53.550;9.926;2023-04-27T14:02:15;101640.22;;;15.95;38.36
43824;BME280;29470;53.550;9.926;2023-04-27T14:07:19;101631.56;;;16.54;37.10
43824;BME280;29470;53.550;9.926;2023-04-27T14:12:35;101631.72;;;16.27;37.19
43824;BME280;29470;53.550;9.926;2023-04-27T14:19:01;101623.31;;;16.46;36.13
43824;BME280;29470;53.550;9.926;2023-04-27T14:31:17;101617.47;;;16.51;35.59
43824;BME280;29470;53.550;9.926;2023-04-27T14:36:33;101616.19;;;16.29;35.80
43824;BME280;29470;53.550;9.926;2023-04-27T14:41:52;101611.97;;;15.05;38.54
43824;BME280;29470;53.550;9.926;2023-04-27T14:54:20;101603.69;;;14.70;39.60
43824;BME280;29470;53.550;9.926;2023-04-27T14:59:47;101605.34;;;15.37;38.85
43824;BME280;29470;53.550;9.926;2023-04-27T15:10:39;101604.97;;;15.17;39.62
43824;BME280;29470;53.550;9.926;2023-04-27T15:16:18;101611.06;;;15.87;38.72
43824;BME280;29470;53.550;9.926;2023-04-27T15:21:39;101601.72;;;15.49;39.81
43824;BME280;29470;53.550;9.926;2023-04-27T15:27:19;101600.91;;;15.78;40.38
43824;BME280;29470;53.550;9.926;2023-04-27T15:32:22;101599.22;;;15.79;40.49
43824;BME280;29470;53.550;9.926;2023-04-27T15:37:35;101600.94;;;15.65;40.70
43824;BME280;29470;53.550;9.926;2023-04-27T15:42:47;101592.72;;;15.30;42.02
43824;BME280;29470;53.550;9.926;2023-04-27T15:48:38;101594.84;;;15.09;42.30
43824;BME280;29470;53.550;9.926;2023-04-27T15:54:26;101591.44;;;15.65;41.54
43824;BME280;29470;53.550;9.926;2023-04-27T15:59:39;101584.50;;;15.94;40.59
43824;BME280;29470;53.550;9.926;2023-04-27T16:04:49;101586.97;;;16.06;40.31
43824;BME280;29470;53.550;9.926;2023-04-27T16:16:20;101578.78;;;15.16;42.24
43824;BME280;29470;53.550;9.926;2023-04-27T16:21:25;101579.13;;;14.94;42.49
43824;BME280;29470;53.550;9.926;2023-04-27T16:26:28;101576.84;;;14.71;43.22
43824;BME280;29470;53.550;9.926;2023-04-27T16:31:33;101580.81;;;15.07;42.38
43824;BME280;29470;53.550;9.926;2023-04-27T16:36:36;101579.09;;;15.34;41.82
43824;BME280;29470;53.550;9.926;2023-04-27T16:41:39;101576.25;;;14.50;43.48
43824;BME280;29470;53.550;9.926;2023-04-27T16:46:43;101576.59;;;15.22;43.00
43824;BME280;29470;53.550;9.926;2023-04-27T16:51:46;101569.25;;;14.49;44.98
43824;BME280;29470;53.550;9.926;2023-04-27T16:56:49;101577.53;;;14.30;44.94
43824;BME280;29470;53.550;9.926;2023-04-27T17:01:56;101582.88;;;14.06;46.05
43824;BME280;29470;53.550;9.926;2023-04-27T17:07:17;101584.44;;;14.29;46.05
43824;BME280;29470;53.550;9.926;2023-04-27T17:12:20;101583.72;;;14.19;45.93
43824;BME280;29470;53.550;9.926;2023-04-27T17:17:24;101585.19;;;14.15;46.07
43824;BME280;29470;53.550;9.926;2023-04-27T17:22:48;101591.22;;;13.89;47.05
43824;BME280;29470;53.550;9.926;2023-04-27T17:27:54;101590.16;;;13.73;47.52
43824;BME280;29470;53.550;9.926;2023-04-27T17:33:04;101581.50;;;13.37;48.79
43824;BME280;29470;53.550;9.926;2023-04-27T17:38:33;101578.59;;;13.44;48.49
43824;BME280;29470;53.550;9.926;2023-04-27T17:44:10;101568.09;;;13.31;49.35
43824;BME280;29470;53.550;9.926;2023-04-27T18:17:01;101572.31;;;12.69;51.88
43824;BME280;29470;53.550;9.926;2023-04-27T19:13:04;101586.19;;;11.33;57.82
43824;BME280;29470;53.550;9.926;2023-04-27T19:18:17;101588.66;;;11.54;56.74
43824;BME280;29470;53.550;9.926;2023-04-27T19:23:28;101588.28;;;11.49;57.13
43824;BME280;29470;53.550;9.926;2023-04-27T19:28:37;101591.06;;;11.62;56.37
43824;BME280;29470;53.550;9.926;2023-04-27T20:01:18;101576.72;;;11.33;54.07
43824;BME280;29470;53.550;9.926;2023-04-27T20:06:22;101580.63;;;11.28;54.88
43824;BME280;29470;53.550;9.926;2023-04-27T20:11:25;101583.50;;;11.21;54.95
43824;BME280;29470;53.550;9.926;2023-04-27T20:16:29;101582.69;;;11.00;55.46
43824;BME280;29470;53.550;9.926;2023-04-27T20:21:32;101581.28;;;10.93;55.42
43824;BME280;29470;53.550;9.926;2023-04-27T20:26:35;101577.38;;;10.98;55.13
43824;BME280;29470;53.550;9.926;2023-04-27T20:31:39;101575.50;;;10.85;55.96
43824;BME280;29470;53.550;9.926;2023-04-27T20:36:43;101579.75;;;10.85;56.13
43824;BME280;29470;53.550;9.926;2023-04-27T20:41:46;101579.56;;;11.04;55.61
43824;BME280;29470;53.550;9.926;2023-04-27T20:46:51;101568.25;;;11.14;55.38
43824;BME280;29470;53.550;9.926;2023-04-27T20:51:53;101562.53;;;11.18;55.38
43824;BME280;29470;53.550;9.926;2023-04-27T20:56:58;101564.59;;;11.22;55.20
43824;BME280;29470;53.550;9.926;2023-04-27T21:02:04;101564.53;;;11.10;55.01
43824;BME280;29470;53.550;9.926;2023-04-27T21:07:08;101565.88;;;11.27;54.37
43824;BME280;29470;53.550;9.926;2023-04-27T21:12:10;101569.25;;;11.48;53.95
43824;BME280;29470;53.550;9.926;2023-04-27T21:17:16;101562.38;;;11.49;53.73
43824;BME280;29470;53.550;9.926;2023-04-27T21:22:19;101566.59;;;11.59;52.95
43824;BME280;29470;53.550;9.926;2023-04-27T21:27:26;101548.38;;;11.69;52.48
43824;BME280;29470;53.550;9.926;2023-04-27T21:32:38;101545.97;;;11.16;53.48
43824;BME280;29470;53.550;9.926;2023-04-27T21:37:41;101552.84;;;11.60;52.90
43824;BME280;29470;53.550;9.926;2023-04-27T21:42:44;101542.97;;;11.88;51.54
43824;BME280;29470;53.550;9.926;2023-04-27T21:47:48;101544.38;;;11.73;51.58
43824;BME280;29470;53.550;9.926;2023-04-27T21:52:57;101542.59;;;11.84;52.33
43824;BME280;29470;53.550;9.926;2023-04-27T21:58:00;101534.88;;;11.73;51.18
43824;BME280;29470;53.550;9.926;2023-04-27T22:03:06;101536.91;;;11.66;51.81
43824;BME280;29470;53.550;9.926;2023-04-27T22:08:09;101532.00;;;11.14;52.76
43824;BME280;29470;53.550;9.926;2023-04-27T22:13:12;101530.00;;;11.66;52.66
43824;BME280;29470;53.550;9.926;2023-04-27T22:18:21;101533.69;;;11.58;52.31
43824;BME280;29470;53.550;9.926;2023-04-27T22:23:24;101522.06;;;11.75;51.98
43824;BME280;29470;53.550;9.926;2023-04-27T22:28:27;101517.09;;;12.00;51.44
43824;BME280;29470;53.550;9.926;2023-04-27T22:33:31;101510.50;;;11.59;52.56
43824;BME280;29470;53.550;9.926;2023-04-27T22:38:34;101508.97;;;11.73;52.12
43824;BME280;29470;53.550;9.926;2023-04-27T22:43:37;101513.25;;;11.73;51.55
43824;BME280;29470;53.550;9.926;2023-04-27T22:48:41;101508.94;;;11.61;52.01
43824;BME280;29470;53.550;9.926;2023-04-27T22:53:45;101510.09;;;11.43;52.27
43824;BME280;29470;53.550;9.926;2023-04-27T22:58:48;101509.13;;;11.08;53.78
43824;BME280;29470;53.550;9.926;2023-04-27T23:03:53;101496.97;;;11.29;53.61
43824;BME280;29470;53.550;9.926;2023-04-27T23:08:56;101494.94;;;11.25;53.24
43824;BME280;29470;53.550;9.926;2023-04-27T23:13:59;101495.78;;;11.36;53.39
43824;BME280;29470;53.550;9.926;2023-04-27T23:19:04;101490.22;;;11.31;53.83
43824;BME280;29470;53.550;9.926;2023-04-27T23:24:07;101494.34;;;11.17;54.56
43824;BME280;29470;53.550;9.926;2023-04-27T23:29:10;101493.78;;;11.22;54.41
43824;BME280;29470;53.550;9.926;2023-04-27T23:34:14;101483.97;;;11.17;54.72
43824;BME280;29470;53.550;9.926;2023-04-27T23:39:18;101476.28;;;11.07;54.60
43824;BME280;29470;53.550;9.926;2023-04-27T23:44:21;101472.41;;;11.02;55.52
43824;BME280;29470;53.550;9.926;2023-04-27T23:49:25;101474.63;;;10.97;55.89
43824;BME280;29470;53.550;9.926;2023-04-27T23:54:28;101468.56;;;10.97;57.05
43824;BME280;29470;53.550;9.926;2023-04-27T23:59:32;101464.16;;;10.96;57.17
